SEMLA ESGG-ESSA
Flight info
| Callsign | SEMLA |
|---|---|
| Flight time | N/A |
| Altitude | 35000 |
| Route | LABAN N873 ARS T317 ELTOK |
| Aircraft | CL60/M-SBDE1E2E3FGHIJ1J4J5J7M3RWXYZ/LB1V1D1 |
Departure
| Time | 2026-05-06 18:41 |
|---|---|
| Airport | Göteborg Landvetter Airport (ESGG) |
Arrival
| Time | N/A |
|---|---|
| Airport | Stockholm-Arlanda Airport (ESSA) |
| Time | Latitude | Longitude | Altitude | Speed | Heading |
|---|---|---|---|---|---|
| 2026-05-06 18:13 | 57.66180 | 12.28789 | 517 ft | 0 kts | 116° |
| 2026-05-06 18:33 | 57.66180 | 12.28790 | 517 ft | 0 kts | 116° |
| 2026-05-06 18:34 | 57.66177 | 12.28802 | 518 ft | 0 kts | 116° |
| 2026-05-06 18:35 | 57.66177 | 12.28803 | 518 ft | 0 kts | 110° |
| 2026-05-06 18:35 | 57.66186 | 12.28811 | 517 ft | 2 kts | 307° |
| 2026-05-06 18:35 | 57.66191 | 12.28773 | 517 ft | 2 kts | 278° |
| 2026-05-06 18:36 | 57.66222 | 12.28696 | 516 ft | 12 kts | 312° |
| 2026-05-06 18:36 | 57.66272 | 12.28554 | 514 ft | 16 kts | 295° |
| 2026-05-06 18:36 | 57.66286 | 12.28502 | 512 ft | 2 kts | 295° |
| 2026-05-06 18:36 | 57.66319 | 12.28411 | 510 ft | 14 kts | 324° |
| 2026-05-06 18:37 | 57.66408 | 12.28440 | 510 ft | 13 kts | 25° |
| 2026-05-06 18:37 | 57.66466 | 12.28493 | 509 ft | 16 kts | 26° |
| 2026-05-06 18:37 | 57.66624 | 12.28636 | 506 ft | 18 kts | 25° |
| 2026-05-06 18:37 | 57.66756 | 12.28757 | 505 ft | 21 kts | 26° |
| 2026-05-06 18:38 | 57.66901 | 12.28889 | 505 ft | 21 kts | 26° |
| 2026-05-06 18:38 | 57.67012 | 12.28990 | 505 ft | 19 kts | 26° |
| 2026-05-06 18:38 | 57.67136 | 12.29099 | 508 ft | 20 kts | 26° |
| 2026-05-06 18:38 | 57.67270 | 12.29222 | 508 ft | 22 kts | 26° |
| 2026-05-06 18:39 | 57.67398 | 12.29339 | 508 ft | 16 kts | 24° |
| 2026-05-06 18:39 | 57.67456 | 12.29293 | 508 ft | 11 kts | 291° |
| 2026-05-06 18:39 | 57.67450 | 12.29127 | 508 ft | 14 kts | 251° |
| 2026-05-06 18:40 | 57.67388 | 12.28987 | 508 ft | 0 kts | 208° |
| 2026-05-06 18:40 | 57.67379 | 12.28978 | 508 ft | 12 kts | 207° |
| 2026-05-06 18:40 | 57.66955 | 12.28585 | 507 ft | 125 kts | 206° |
| 2026-05-06 18:41 | 57.65954 | 12.27671 | 888 ft | 181 kts | 208° |
| 2026-05-06 18:41 | 57.64777 | 12.26535 | 1892 ft | 204 kts | 210° |
| 2026-05-06 18:41 | 57.63465 | 12.25207 | 2827 ft | 238 kts | 210° |
| 2026-05-06 18:41 | 57.61906 | 12.23701 | 3837 ft | 269 kts | 205° |
| 2026-05-06 18:42 | 57.60082 | 12.22675 | 4796 ft | 298 kts | 186° |